createdAt,value
2018-12-24T00:01:48.968Z,3.80
2018-12-24T00:04:18.171Z,4.10
2018-12-24T00:06:46.910Z,4.10
2018-12-24T00:09:15.858Z,3.53
2018-12-24T00:11:44.581Z,3.00
2018-12-24T00:14:15.757Z,4.57
2018-12-24T00:16:45.799Z,2.90
2018-12-24T00:19:14.514Z,3.07
2018-12-24T00:21:50.965Z,2.97
2018-12-24T00:24:20.803Z,4.30
2018-12-24T00:26:50.486Z,2.80
2018-12-24T00:29:19.182Z,2.67
2018-12-24T00:31:49.539Z,2.70
2018-12-24T00:34:18.206Z,3.83
2018-12-24T00:36:46.942Z,2.10
2018-12-24T00:39:18.416Z,2.80
2018-12-24T00:41:48.730Z,2.87
2018-12-24T00:44:18.583Z,2.30
2018-12-24T00:46:47.402Z,3.17
2018-12-24T00:49:20.061Z,2.67
2018-12-24T00:51:48.723Z,1.90
2018-12-24T00:54:24.567Z,2.30
2018-12-24T00:56:52.298Z,2.20
2018-12-24T00:59:20.976Z,2.33
2018-12-24T01:01:52.349Z,2.30
2018-12-24T01:04:23.785Z,2.50
2018-12-24T01:06:52.522Z,2.20
2018-12-24T01:09:27.064Z,4.47
2018-12-24T01:11:55.739Z,2.60
2018-12-24T01:14:24.397Z,2.60
2018-12-24T01:16:53.236Z,3.50
2018-12-24T01:19:32.303Z,3.53
2018-12-24T01:21:54.906Z,3.20
2018-12-24T01:24:26.314Z,3.57
2018-12-24T01:26:54.946Z,4.90
2018-12-24T01:29:25.288Z,4.27
2018-12-24T01:32:03.437Z,3.97
2018-12-24T01:34:33.789Z,4.13
2018-12-24T01:37:05.338Z,3.90
2018-12-24T01:39:34.370Z,4.70
2018-12-24T01:42:06.480Z,4.37
2018-12-24T01:44:54.522Z,4.30
2018-12-24T01:47:20.673Z,3.73
2018-12-24T01:49:52.289Z,4.00
2018-12-24T01:52:22.238Z,4.20
2018-12-24T01:54:50.961Z,3.63
2018-12-24T01:57:19.677Z,3.67
2018-12-24T01:59:51.763Z,2.60
2018-12-24T02:02:20.424Z,4.80
2018-12-24T02:04:49.058Z,4.40
2018-12-24T02:07:17.727Z,4.17
2018-12-24T02:09:46.395Z,4.30
2018-12-24T02:12:15.039Z,3.93
2018-12-24T02:14:45.284Z,4.33
2018-12-24T02:17:20.719Z,3.80
2018-12-24T02:19:50.443Z,4.20
2018-12-24T02:22:23.244Z,4.73
2018-12-24T02:25:06.452Z,4.43
2018-12-24T02:27:24.882Z,4.33
2018-12-24T02:29:57.948Z,4.30
2018-12-24T02:32:30.223Z,5.60
2018-12-24T02:34:58.909Z,5.27
2018-12-24T02:37:32.506Z,4.37
2018-12-24T02:40:02.745Z,5.20
2018-12-24T02:42:31.449Z,4.67
2018-12-24T02:45:02.947Z,4.67
2018-12-24T02:47:31.571Z,5.10
2018-12-24T02:50:03.507Z,4.87
2018-12-24T02:52:37.266Z,4.97
2018-12-24T02:55:04.485Z,4.23
2018-12-24T02:57:36.219Z,5.17
2018-12-24T03:00:05.995Z,4.33
2018-12-24T03:02:34.686Z,4.37
2018-12-24T03:05:03.375Z,5.50
2018-12-24T03:07:32.048Z,4.40
2018-12-24T03:10:00.720Z,5.30
2018-12-24T03:12:29.431Z,5.10
2018-12-24T03:14:58.473Z,5.73
2018-12-24T03:17:27.146Z,4.27
2018-12-24T03:19:55.862Z,6.10
2018-12-24T03:22:24.952Z,4.80
2018-12-24T03:24:56.568Z,5.80
2018-12-24T03:27:25.274Z,6.37
2018-12-24T03:29:53.946Z,7.07
2018-12-24T03:32:22.680Z,5.60
2018-12-24T03:34:51.646Z,6.03
2018-12-24T03:37:20.310Z,4.83
2018-12-24T03:39:51.730Z,6.07
2018-12-24T03:42:25.286Z,6.53
2018-12-24T03:44:56.788Z,5.57
2018-12-24T03:47:25.915Z,6.13
2018-12-24T03:49:55.814Z,5.83
2018-12-24T03:52:25.460Z,6.83
2018-12-24T03:54:54.127Z,7.17
2018-12-24T03:57:22.956Z,7.00
2018-12-24T03:59:51.713Z,6.77
2018-12-24T04:02:20.790Z,6.40
2018-12-24T04:04:49.535Z,7.03
2018-12-24T04:07:18.207Z,6.77
2018-12-24T04:09:46.999Z,5.00
2018-12-24T04:12:15.735Z,5.70
2018-12-24T04:14:44.472Z,5.63
2018-12-24T04:17:13.192Z,5.37
2018-12-24T04:19:41.942Z,6.30
2018-12-24T04:22:10.685Z,5.37
2018-12-24T04:24:39.404Z,5.63
2018-12-24T04:27:08.143Z,4.23
2018-12-24T04:29:36.881Z,7.03
2018-12-24T04:32:05.585Z,5.33
2018-12-24T04:34:34.263Z,5.40
2018-12-24T04:37:02.972Z,5.77
2018-12-24T04:39:32.040Z,4.00
2018-12-24T04:42:00.641Z,5.57
2018-12-24T04:44:29.372Z,4.80
2018-12-24T04:46:58.081Z,4.13
2018-12-24T04:49:26.820Z,4.47
2018-12-24T04:51:55.493Z,3.50
2018-12-24T04:54:24.290Z,4.73
2018-12-24T04:56:53.044Z,5.00
2018-12-24T04:59:21.792Z,3.43
2018-12-24T05:01:50.497Z,3.37
2018-12-24T05:04:19.253Z,3.83
2018-12-24T05:06:48.213Z,2.97
2018-12-24T05:09:17.313Z,4.37
2018-12-24T05:11:46.064Z,4.27
2018-12-24T05:14:14.658Z,5.13
2018-12-24T05:16:43.373Z,3.20
2018-12-24T05:19:12.049Z,4.37
2018-12-24T05:21:40.795Z,4.80
2018-12-24T05:24:09.581Z,4.13
2018-12-24T05:26:38.261Z,2.77
2018-12-24T05:29:06.994Z,3.30
2018-12-24T05:31:35.728Z,2.37
2018-12-24T05:34:04.398Z,4.30
2018-12-24T05:36:33.158Z,2.90
2018-12-24T05:39:01.969Z,3.33
2018-12-24T05:41:30.647Z,3.13
2018-12-24T05:43:59.383Z,3.40
2018-12-24T05:46:28.486Z,2.53
2018-12-24T05:48:57.156Z,3.77
2018-12-24T05:51:25.827Z,2.27
2018-12-24T05:53:54.539Z,2.90
2018-12-24T05:56:23.268Z,3.60
2018-12-24T05:58:51.887Z,2.43
2018-12-24T06:01:20.674Z,3.23
2018-12-24T06:03:49.420Z,2.03
2018-12-24T06:06:18.154Z,2.83
2018-12-24T06:08:46.948Z,2.50
2018-12-24T06:11:15.549Z,2.20
2018-12-24T06:13:44.207Z,1.93
2018-12-24T06:16:13.011Z,2.47
2018-12-24T06:18:41.602Z,3.00
2018-12-24T06:21:10.268Z,2.27
2018-12-24T06:23:38.908Z,2.00
2018-12-24T06:26:07.578Z,1.73
2018-12-24T06:28:36.261Z,1.80
2018-12-24T06:31:04.984Z,2.00
2018-12-24T06:33:33.655Z,1.77
2018-12-24T06:36:02.379Z,2.60
2018-12-24T06:38:31.176Z,1.97
2018-12-24T06:41:00.045Z,1.90
2018-12-24T06:43:28.786Z,1.60
2018-12-24T06:45:57.573Z,1.30
2018-12-24T06:48:26.247Z,2.03
2018-12-24T06:50:54.841Z,1.50
2018-12-24T06:53:23.556Z,2.33
2018-12-24T06:55:52.146Z,2.10
2018-12-24T06:58:20.823Z,1.80
2018-12-24T07:00:49.516Z,2.23
2018-12-24T07:03:18.194Z,1.20
2018-12-24T07:05:46.891Z,1.77
2018-12-24T07:08:15.608Z,3.07
2018-12-24T07:10:44.269Z,1.30
2018-12-24T07:13:12.940Z,1.57
2018-12-24T07:15:41.992Z,1.30
2018-12-24T07:18:11.016Z,1.50
2018-12-24T07:20:39.759Z,1.40
2018-12-24T07:23:08.825Z,2.00
2018-12-24T07:25:37.490Z,2.17
2018-12-24T07:28:06.102Z,2.37
2018-12-24T07:30:34.822Z,1.73
2018-12-24T07:33:03.418Z,1.40
2018-12-24T07:35:32.085Z,3.30
2018-12-24T07:38:02.996Z,2.77
2018-12-24T07:40:31.040Z,1.90
2018-12-24T07:42:59.747Z,4.33
2018-12-24T07:45:28.466Z,2.23
2018-12-24T07:47:57.134Z,2.30
2018-12-24T07:50:25.799Z,2.33
2018-12-24T07:52:54.513Z,2.80
2018-12-24T07:55:23.281Z,3.53
2018-12-24T07:57:52.021Z,1.90
2018-12-24T08:00:20.829Z,2.90
2018-12-24T08:02:49.488Z,1.67
2018-12-24T08:05:18.077Z,1.73
2018-12-24T08:07:46.848Z,2.97
2018-12-24T08:10:15.511Z,1.30
2018-12-24T08:12:44.122Z,1.60
2018-12-24T08:15:12.895Z,1.77
2018-12-24T08:17:41.574Z,3.17
2018-12-24T08:20:10.292Z,3.00
2018-12-24T08:22:39.074Z,2.40
2018-12-24T08:25:07.765Z,2.27
2018-12-24T08:27:36.842Z,1.67
2018-12-24T08:30:05.848Z,3.50
2018-12-24T08:32:34.510Z,1.90
2018-12-24T08:35:03.119Z,3.33
2018-12-24T08:37:31.896Z,2.37
2018-12-24T08:40:00.561Z,3.03
2018-12-24T08:42:29.315Z,1.87
2018-12-24T08:44:58.626Z,1.60
2018-12-24T08:47:27.362Z,1.90
2018-12-24T08:49:55.964Z,2.33
2018-12-24T08:52:24.751Z,3.30
2018-12-24T08:54:53.420Z,2.60
2018-12-24T08:57:22.095Z,1.97
2018-12-24T08:59:50.883Z,2.27
2018-12-24T09:02:19.549Z,2.60
2018-12-24T09:04:48.295Z,1.47
2018-12-24T09:07:17.018Z,2.23
2018-12-24T09:09:45.618Z,1.43
2018-12-24T09:12:14.359Z,1.27
2018-12-24T09:14:50.046Z,2.33
2018-12-24T09:17:13.530Z,2.13
2018-12-24T09:19:42.201Z,2.53
2018-12-24T09:22:11.283Z,1.97
2018-12-24T09:24:39.947Z,1.47
2018-12-24T09:27:08.704Z,3.60
2018-12-24T09:29:37.515Z,3.77
2018-12-24T09:32:06.107Z,1.30
2018-12-24T09:34:34.773Z,1.40
2018-12-24T09:37:03.485Z,2.77
2018-12-24T09:39:32.223Z,2.23
2018-12-24T09:42:00.965Z,2.20
2018-12-24T09:44:29.675Z,3.67
2018-12-24T09:46:58.789Z,4.67
2018-12-24T09:49:27.536Z,3.70
2018-12-24T09:51:56.326Z,3.67
2018-12-24T09:54:25.089Z,2.27
2018-12-24T09:56:53.852Z,62.73
2018-12-24T09:59:22.633Z,132.90
2018-12-24T10:01:51.321Z,8.63
2018-12-24T10:04:21.666Z,11.27
2018-12-24T10:06:50.440Z,8.87
2018-12-24T10:09:19.172Z,7.47
2018-12-24T10:11:47.921Z,5.57
2018-12-24T10:14:17.029Z,5.53
2018-12-24T10:16:45.798Z,7.37
2018-12-24T10:19:14.524Z,4.43
2018-12-24T10:21:43.317Z,9.33
2018-12-24T10:24:11.996Z,6.40
2018-12-24T10:26:40.656Z,4.37
2018-12-24T10:29:09.377Z,7.93
2018-12-24T10:31:38.115Z,6.40
2018-12-24T10:34:06.850Z,8.67
2018-12-24T10:36:35.631Z,10.03
2018-12-24T10:39:06.300Z,4.97
2018-12-24T10:41:35.099Z,8.03
2018-12-24T10:44:03.951Z,2.50
2018-12-24T10:46:32.702Z,7.83
2018-12-24T10:49:01.374Z,1.93
2018-12-24T10:51:30.151Z,9.33
2018-12-24T10:53:58.893Z,7.17
2018-12-24T10:56:27.485Z,3.47
2018-12-24T10:58:56.266Z,4.50
2018-12-24T11:01:24.942Z,3.20
2018-12-24T11:03:54.034Z,3.20
2018-12-24T11:06:22.752Z,4.53
2018-12-24T11:08:51.437Z,12.43
2018-12-24T11:11:20.168Z,9.10
2018-12-24T11:13:48.954Z,8.50
2018-12-24T11:16:17.683Z,12.13
2018-12-24T11:18:46.434Z,2.83
2018-12-24T11:21:15.211Z,6.13
2018-12-24T11:23:43.952Z,6.60
2018-12-24T11:26:12.629Z,7.30
2018-12-24T11:28:41.358Z,18.87
2018-12-24T11:31:10.120Z,12.17
2018-12-24T11:33:38.796Z,9.83
2018-12-24T11:36:07.508Z,6.03
2018-12-24T11:38:36.170Z,6.13
2018-12-24T11:41:04.843Z,5.70
2018-12-24T11:43:33.550Z,4.47
2018-12-24T11:46:02.222Z,5.37
2018-12-24T11:48:30.897Z,3.80
2018-12-24T11:50:59.556Z,5.70
2018-12-24T11:53:28.210Z,7.03
2018-12-24T11:55:56.807Z,11.67
2018-12-24T11:58:25.515Z,4.67
2018-12-24T12:00:54.112Z,12.83
2018-12-24T12:03:22.864Z,4.60
2018-12-24T12:05:51.641Z,5.70
2018-12-24T12:08:20.254Z,6.50
2018-12-24T12:10:48.918Z,6.77
2018-12-24T12:13:17.712Z,7.47
2018-12-24T12:15:46.449Z,6.50
2018-12-24T12:18:15.120Z,6.40
2018-12-24T12:20:52.373Z,5.93
2018-12-24T12:23:14.158Z,5.47
2018-12-24T12:25:42.814Z,4.53
2018-12-24T12:28:11.527Z,3.30
2018-12-24T12:30:40.130Z,4.30
2018-12-24T12:33:08.784Z,7.57
2018-12-24T12:35:37.497Z,4.97
2018-12-24T12:38:06.173Z,1.70
2018-12-24T12:40:34.761Z,5.07
2018-12-24T12:43:03.475Z,3.83
2018-12-24T12:45:32.157Z,4.23
2018-12-24T12:48:00.904Z,1.80
2018-12-24T12:50:29.542Z,4.90
2018-12-24T12:52:58.214Z,5.10
2018-12-24T12:55:26.886Z,3.90
2018-12-24T12:57:55.599Z,2.23
2018-12-24T13:00:24.287Z,2.67
2018-12-24T13:02:52.950Z,1.77
2018-12-24T13:05:21.671Z,5.23
2018-12-24T13:07:50.342Z,2.90
2018-12-24T13:10:19.045Z,5.53
2018-12-24T13:12:47.824Z,2.80
2018-12-24T13:15:16.486Z,1.43
2018-12-24T13:17:45.158Z,2.07
2018-12-24T13:20:13.943Z,7.30
2018-12-24T13:22:42.620Z,4.20
2018-12-24T13:25:11.278Z,5.03
2018-12-24T13:27:40.348Z,4.77
2018-12-24T13:30:09.096Z,4.17
2018-12-24T13:32:37.771Z,2.93
2018-12-24T13:35:06.480Z,4.53
2018-12-24T13:37:35.227Z,3.60
2018-12-24T13:40:03.899Z,4.13
2018-12-24T13:42:32.629Z,3.80
2018-12-24T13:45:01.353Z,3.00
2018-12-24T13:47:30.027Z,3.07
2018-12-24T13:49:58.729Z,3.47
2018-12-24T13:52:27.411Z,4.27
2018-12-24T13:54:57.390Z,4.10
2018-12-24T13:57:26.195Z,3.33
2018-12-24T14:00:38.176Z,4.97
2018-12-24T14:03:06.778Z,6.03
2018-12-24T14:05:35.408Z,5.00
2018-12-24T14:08:03.976Z,5.40
2018-12-24T14:10:32.654Z,5.23
2018-12-24T14:13:01.223Z,4.10
2018-12-24T14:15:29.849Z,3.10
2018-12-24T14:17:58.449Z,4.40
2018-12-24T14:20:27.015Z,3.40
2018-12-24T14:22:55.573Z,2.53
2018-12-24T14:25:24.110Z,3.90
2018-12-24T14:27:52.676Z,4.57
2018-12-24T14:30:21.605Z,3.77
2018-12-24T14:32:50.233Z,4.87
2018-12-24T14:35:18.852Z,4.07
2018-12-24T14:37:47.346Z,3.80
2018-12-24T14:40:16.024Z,6.00
2018-12-24T14:42:44.580Z,3.67
2018-12-24T14:45:13.071Z,2.90
2018-12-24T14:47:41.615Z,6.30
2018-12-24T14:50:10.170Z,4.63
2018-12-24T14:52:38.726Z,3.50
2018-12-24T14:55:07.333Z,4.03
2018-12-24T14:57:35.826Z,3.20
2018-12-24T15:00:06.058Z,2.53
2018-12-24T15:02:34.663Z,1.80
2018-12-24T15:05:03.214Z,2.60
2018-12-24T15:07:31.706Z,7.70
2018-12-24T15:10:00.321Z,3.67
2018-12-24T15:12:28.813Z,5.47
2018-12-24T15:14:57.367Z,2.47
2018-12-24T15:17:25.902Z,2.73
2018-12-24T15:19:54.460Z,1.77
2018-12-24T15:22:23.014Z,3.60
2018-12-24T15:24:51.606Z,2.30
2018-12-24T15:27:20.096Z,3.20
2018-12-24T15:29:48.655Z,2.10
2018-12-24T15:32:17.289Z,3.07
2018-12-24T15:34:47.138Z,4.87
2018-12-24T15:37:15.705Z,3.23
2018-12-24T15:39:44.309Z,3.40
2018-12-24T15:42:12.872Z,3.90
2018-12-24T15:44:41.444Z,4.30
2018-12-24T15:47:10.051Z,2.80
2018-12-24T15:49:38.608Z,3.10
2018-12-24T15:52:07.164Z,3.23
2018-12-24T15:54:35.842Z,2.37
2018-12-24T15:57:04.343Z,43.63
2018-12-24T15:59:32.836Z,3.33
2018-12-24T16:02:01.744Z,2.67
2018-12-24T16:04:30.228Z,4.27
2018-12-24T16:06:58.721Z,4.07
2018-12-24T16:09:27.247Z,5.57
2018-12-24T16:11:55.743Z,4.00
2018-12-24T16:14:24.312Z,4.70
2018-12-24T16:16:52.910Z,4.23
2018-12-24T16:19:21.470Z,5.20
2018-12-24T16:21:49.962Z,4.57
2018-12-24T16:24:18.571Z,5.57
2018-12-24T16:26:47.128Z,5.67
2018-12-24T16:29:15.707Z,8.27
2018-12-24T16:31:44.291Z,6.60
2018-12-24T16:34:12.786Z,6.13
2018-12-24T16:36:41.347Z,7.93
2018-12-24T16:39:09.949Z,15.07
2018-12-24T16:41:38.509Z,7.37
2018-12-24T16:44:07.146Z,7.67
2018-12-24T16:46:35.748Z,10.03
2018-12-24T16:49:04.376Z,5.87
2018-12-24T16:51:32.942Z,6.90
2018-12-24T16:54:01.605Z,7.40
2018-12-24T16:56:30.167Z,7.27
2018-12-24T16:58:58.804Z,6.23
2018-12-24T17:01:27.407Z,8.67
2018-12-24T17:03:56.036Z,4.83
2018-12-24T17:06:24.671Z,11.60
2018-12-24T17:08:53.279Z,7.43
2018-12-24T17:11:21.913Z,6.30
2018-12-24T17:13:50.470Z,5.30
2018-12-24T17:16:19.109Z,5.67
2018-12-24T17:18:47.668Z,9.13
2018-12-24T17:21:16.312Z,9.83
2018-12-24T17:23:44.980Z,14.07
2018-12-24T17:26:13.603Z,4.73
2018-12-24T17:28:42.230Z,5.27
2018-12-24T17:31:10.829Z,4.57
2018-12-24T17:33:39.452Z,6.97
2018-12-24T17:36:08.084Z,3.20
2018-12-24T17:38:36.759Z,2.20
2018-12-24T17:41:05.385Z,2.63
2018-12-24T17:43:33.949Z,3.43
2018-12-24T17:46:02.636Z,2.07
2018-12-24T17:48:31.639Z,5.73
2018-12-24T17:51:00.198Z,3.97
2018-12-24T17:53:28.861Z,1.80
2018-12-24T17:55:57.518Z,9.53
2018-12-24T17:58:26.076Z,7.90
2018-12-24T18:00:54.746Z,5.53
2018-12-24T18:03:23.306Z,5.03
2018-12-24T18:05:51.872Z,9.80
2018-12-24T18:08:20.546Z,7.33
2018-12-24T18:10:50.546Z,7.67
2018-12-24T18:13:19.694Z,7.63
2018-12-24T18:15:48.366Z,5.40
2018-12-24T18:18:16.943Z,7.90
2018-12-24T18:20:45.507Z,8.83
2018-12-24T18:23:14.165Z,5.40
2018-12-24T18:25:43.164Z,8.20
2018-12-24T18:28:11.798Z,10.53
2018-12-24T18:30:40.756Z,8.97
2018-12-24T18:33:09.383Z,9.30
2018-12-24T18:35:38.010Z,7.63
2018-12-24T18:38:06.689Z,7.00
2018-12-24T18:40:35.253Z,9.17
2018-12-24T18:43:03.802Z,6.63
2018-12-24T18:45:32.471Z,7.97
2018-12-24T18:48:01.107Z,9.73
2018-12-24T18:50:29.730Z,9.63
2018-12-24T18:52:58.258Z,9.03
2018-12-24T18:55:26.883Z,7.70
2018-12-24T18:57:55.515Z,12.30
2018-12-24T19:00:24.273Z,17.50
2018-12-24T19:02:52.833Z,13.47
2018-12-24T19:05:21.505Z,8.37
2018-12-24T19:07:50.276Z,9.80
2018-12-24T19:10:18.995Z,8.20
2018-12-24T19:12:47.570Z,8.37
2018-12-24T19:15:16.095Z,13.43
2018-12-24T19:17:44.765Z,9.03
2018-12-24T19:20:13.382Z,13.17
2018-12-24T19:22:42.048Z,14.50
2018-12-24T19:25:10.715Z,8.07
2018-12-24T19:27:39.273Z,8.57
2018-12-24T19:30:09.443Z,32.07
2018-12-24T19:32:38.015Z,108.50
2018-12-24T19:35:06.586Z,11.43
2018-12-24T19:37:35.113Z,8.77
2018-12-24T19:40:03.603Z,14.80
2018-12-24T19:42:32.260Z,29.37
2018-12-24T19:45:00.873Z,43.57
2018-12-24T19:47:29.432Z,54.37
2018-12-24T19:49:58.001Z,23.53
2018-12-24T19:52:27.509Z,21.00
2018-12-24T19:54:56.056Z,8.50
2018-12-24T19:57:24.627Z,6.87
2018-12-24T19:59:53.235Z,7.40
2018-12-24T20:02:21.796Z,7.27
2018-12-24T20:04:50.437Z,4.00
2018-12-24T20:07:19.022Z,10.20
2018-12-24T20:09:47.577Z,8.53
2018-12-24T20:12:16.069Z,10.40
2018-12-24T20:14:44.663Z,9.03
2018-12-24T20:17:13.288Z,13.93
2018-12-24T20:19:41.922Z,11.17
2018-12-24T20:22:10.515Z,12.13
2018-12-24T20:24:39.013Z,11.63
2018-12-24T20:27:07.647Z,14.13
2018-12-24T20:29:36.255Z,11.40
2018-12-24T20:32:04.881Z,12.47
2018-12-24T20:34:33.375Z,14.27
2018-12-24T20:37:01.981Z,16.03
2018-12-24T20:39:30.597Z,9.97
2018-12-24T20:41:59.095Z,9.17
2018-12-24T20:44:27.764Z,12.40
2018-12-24T20:46:56.264Z,8.90
2018-12-24T20:49:24.833Z,17.07
2018-12-24T20:51:53.794Z,78.20
2018-12-24T20:54:22.428Z,13.30
2018-12-24T20:56:51.427Z,10.60
2018-12-24T20:59:20.041Z,10.67
2018-12-24T21:01:48.601Z,14.70
2018-12-24T21:04:17.100Z,13.03
2018-12-24T21:06:45.634Z,14.40
2018-12-24T21:09:14.198Z,9.37
2018-12-24T21:11:42.704Z,13.93
2018-12-24T21:14:11.371Z,9.60
2018-12-24T21:16:39.867Z,12.77
2018-12-24T21:19:08.436Z,11.13
2018-12-24T21:21:37.037Z,13.83
2018-12-24T21:24:06.626Z,9.97
2018-12-24T21:26:35.295Z,13.63
2018-12-24T21:29:03.905Z,23.23
2018-12-24T21:31:32.463Z,14.33
2018-12-24T21:34:01.056Z,17.33
2018-12-24T21:36:29.669Z,70.20
2018-12-24T21:38:58.265Z,11.50
2018-12-24T21:41:26.744Z,5.83
2018-12-24T21:43:55.281Z,14.43
2018-12-24T21:46:23.842Z,13.70
2018-12-24T21:48:52.397Z,9.63
2018-12-24T21:51:20.996Z,14.37
2018-12-24T21:53:49.553Z,16.80
2018-12-24T21:56:18.117Z,9.93
2018-12-24T21:58:46.785Z,11.77
2018-12-24T22:01:15.345Z,11.43
2018-12-24T22:03:43.976Z,18.93
2018-12-24T22:06:12.739Z,27.07
2018-12-24T22:08:41.314Z,18.53
2018-12-24T22:11:09.863Z,20.17
2018-12-24T22:13:38.476Z,13.50
2018-12-24T22:16:07.185Z,13.27
2018-12-24T22:18:35.835Z,40.40
2018-12-24T22:21:04.548Z,35.77
2018-12-24T22:23:33.160Z,22.13
2018-12-24T22:26:01.712Z,23.87
2018-12-24T22:28:30.329Z,25.73
2018-12-24T22:30:58.957Z,14.23
2018-12-24T22:33:27.591Z,31.17
2018-12-24T22:35:56.268Z,34.20
2018-12-24T22:38:24.917Z,41.03
2018-12-24T22:40:53.541Z,43.93
2018-12-24T22:43:22.215Z,37.90
2018-12-24T22:45:50.713Z,11.47
2018-12-24T22:48:19.346Z,18.13
2018-12-24T22:50:47.957Z,21.10
2018-12-24T22:53:16.520Z,13.50
2018-12-24T22:55:45.013Z,31.13
2018-12-24T22:58:13.692Z,17.27
2018-12-24T23:00:46.237Z,24.27
2018-12-24T23:03:14.867Z,11.10
2018-12-24T23:05:43.994Z,14.73
2018-12-24T23:08:13.119Z,19.43
2018-12-24T23:10:41.681Z,14.80
2018-12-24T23:13:10.359Z,150.07
2018-12-24T23:15:38.999Z,77.50
2018-12-24T23:18:07.572Z,74.50
2018-12-24T23:20:36.190Z,27.33
2018-12-24T23:23:07.695Z,88.57
2018-12-24T23:25:36.337Z,148.77
2018-12-24T23:28:05.022Z,123.70
2018-12-24T23:30:33.588Z,145.93
2018-12-24T23:33:02.153Z,52.23
2018-12-24T23:35:30.833Z,19.60
2018-12-24T23:37:59.468Z,19.40
2018-12-24T23:40:28.030Z,19.47
2018-12-24T23:42:56.641Z,19.77
2018-12-24T23:45:25.146Z,16.30
2018-12-24T23:47:53.705Z,16.43
2018-12-24T23:50:22.748Z,17.30
2018-12-24T23:52:51.246Z,20.70
2018-12-24T23:55:19.881Z,23.70
2018-12-24T23:57:48.566Z,18.60
